54.8°F
Current conditions from King Hill
Updated every 5 minutes
 
  Saturday September 20, 2014

Station Historical Data
Daily Summary for March 27, 2012 Units:  Both    English   Metric
« Previous Day
Next Day »
Daily Weekly Monthly Yearly Custom
  High: Low: Average:
Temperature: 35.6 °F /  2 °C 16.5 °F /  -8.6 °C 26 °F /  -3.3 °C
Dew Point: 15.7 °F /  -9.1 °C 0.8 °F /  -17.3 °C 6 °F /  -14.4 °C
Humidity: 60% 24% 43%
Wind Speed: 9.0mph /  14.5km/h - 2.7mph /  4.3km/h
Wind Gust: 21.0mph /  33.8km/h - -
Wind- - South
Pressure: 30.32 in /  1026.6 hPa 30.05 in /  1017.5 hPa -
Precipitation: 0.00 in /  0 mm    
Historical Graphs
 
 
Tabular Data for March 27, 2012
Time Temperature Dew Point Pressure Wind Wind Speed Wind Gust Humidity Daily Rainfall
00:00 23.0 °F /  -5 °C 3.8 °F /  -15.7 °C 30.13in /  1020.2hPa NNE 1.0mph /  1.6km/h 12.0mph /  19.3km/h 43% 0.10in /  2.5mm
00:05 22.7 °F /  -5.2 °C 4.0 °F /  -15.6 °C 30.13in /  1020.2hPa North 1.0mph /  1.6km/h 8.0mph /  12.9km/h 44% 0.00in /  0mm
00:09 22.4 °F /  -5.3 °C 3.8 °F /  -15.7 °C 30.13in /  1020.2hPa North 2.0mph /  3.2km/h 7.0mph /  11.3km/h 44% 0.00in /  0mm
00:14 22.4 °F /  -5.3 °C 4.3 °F /  -15.4 °C 30.13in /  1020.2hPa North 2.0mph /  3.2km/h 13.0mph /  20.9km/h 45% 0.00in /  0mm
00:19 22.4 °F /  -5.3 °C 3.3 °F /  -15.9 °C 30.13in /  1020.2hPa North 6.0mph /  9.7km/h 15.0mph /  24.1km/h 43% 0.00in /  0mm
00:24 22.6 °F /  -5.2 °C 3.9 °F /  -15.6 °C 30.13in /  1020.2hPa NNE 5.0mph /  8km/h 15.0mph /  24.1km/h 44% 0.00in /  0mm
00:29 22.5 °F /  -5.3 °C 3.4 °F /  -15.9 °C 30.13in /  1020.2hPa North 3.0mph /  4.8km/h 15.0mph /  24.1km/h 43% 0.00in /  0mm
00:34 22.4 °F /  -5.3 °C 3.3 °F /  -15.9 °C 30.13in /  1020.2hPa North 4.0mph /  6.4km/h 13.0mph /  20.9km/h 43% 0.00in /  0mm
00:39 22.4 °F /  -5.3 °C 3.3 °F /  -15.9 °C 30.13in /  1020.2hPa NNE 4.0mph /  6.4km/h 13.0mph /  20.9km/h 43% 0.00in /  0mm
00:45 22.4 °F /  -5.3 °C 3.8 °F /  -15.7 °C 30.14in /  1020.5hPa North 2.0mph /  3.2km/h 13.0mph /  20.9km/h 44% 0.00in /  0mm
00:54 22.2 °F /  -5.4 °C 3.1 °F /  -16.1 °C 30.14in /  1020.5hPa North 5.0mph /  8km/h 17.0mph /  27.4km/h 43% 0.00in /  0mm
00:59 22.2 °F /  -5.4 °C 3.1 °F /  -16.1 °C 30.14in /  1020.5hPa North 2.0mph /  3.2km/h 17.0mph /  27.4km/h 43% 0.00in /  0mm
01:04 21.9 °F /  -5.6 °C 2.8 °F /  -16.2 °C 30.14in /  1020.5hPa North 3.0mph /  4.8km/h 9.0mph /  14.5km/h 43% 0.00in /  0mm
01:14 21.7 °F /  -5.7 °C 2.6 °F /  -16.3 °C 30.14in /  1020.5hPa North 2.0mph /  3.2km/h 12.0mph /  19.3km/h 43% 0.00in /  0mm
01:19 21.6 °F /  -5.8 °C 3.0 °F /  -16.1 °C 30.15in /  1020.9hPa North 4.0mph /  6.4km/h 11.0mph /  17.7km/h 44% 0.00in /  0mm
01:24 21.6 °F /  -5.8 °C 3.0 °F /  -16.1 °C 30.14in /  1020.5hPa NNE 3.0mph /  4.8km/h 20.0mph /  32.2km/h 44% 0.00in /  0mm
01:29 21.6 °F /  -5.8 °C 3.0 °F /  -16.1 °C 30.15in /  1020.9hPa NNE 2.0mph /  3.2km/h 20.0mph /  32.2km/h 44% 0.00in /  0mm
01:34 21.7 °F /  -5.7 °C 2.6 °F /  -16.3 °C 30.15in /  1020.9hPa North 5.0mph /  8km/h 16.0mph /  25.7km/h 43% 0.00in /  0mm
01:39 21.6 °F /  -5.8 °C 3.5 °F /  -15.8 °C 30.15in /  1020.9hPa North 1.0mph /  1.6km/h 16.0mph /  25.7km/h 45% 0.00in /  0mm
01:44 21.4 °F /  -5.9 °C 3.3 °F /  -15.9 °C 30.15in /  1020.9hPa North 3.0mph /  4.8km/h 12.0mph /  19.3km/h 45% 0.00in /  0mm
01:49 21.4 °F /  -5.9 °C 3.3 °F /  -15.9 °C 30.15in /  1020.9hPa North 5.0mph /  8km/h 13.0mph /  20.9km/h 45% 0.00in /  0mm
01:59 21.3 °F /  -5.9 °C 2.3 °F /  -16.5 °C 30.16in /  1021.2hPa North 3.0mph /  4.8km/h 21.0mph /  33.8km/h 43% 0.00in /  0mm
02:04 21.1 °F /  -6.1 °C 3.1 °F /  -16.1 °C 30.16in /  1021.2hPa North 2.0mph /  3.2km/h 8.0mph /  12.9km/h 45% 0.00in /  0mm
02:09 21.2 °F /  -6 °C 2.2 °F /  -16.6 °C 30.16in /  1021.2hPa North 6.0mph /  9.7km/h 18.0mph /  29km/h 43% 0.00in /  0mm
02:14 21.1 °F /  -6.1 °C 3.1 °F /  -16.1 °C 30.15in /  1020.9hPa NNE 4.0mph /  6.4km/h 18.0mph /  29km/h 45% 0.00in /  0mm
02:19 21.0 °F /  -6.1 °C 2.0 °F /  -16.7 °C 30.15in /  1020.9hPa North 3.0mph /  4.8km/h 15.0mph /  24.1km/h 43% 0.00in /  0mm
02:24 20.9 °F /  -6.2 °C 1.9 °F /  -16.7 °C 30.15in /  1020.9hPa North 4.0mph /  6.4km/h 13.0mph /  20.9km/h 43% 0.00in /  0mm
02:29 20.7 °F /  -6.3 °C 2.2 °F /  -16.6 °C 30.16in /  1021.2hPa North 1.0mph /  1.6km/h 13.0mph /  20.9km/h 44% 0.00in /  0mm
02:34 20.5 °F /  -6.4 °C 2.5 °F /  -16.4 °C 30.16in /  1021.2hPa NNE 3.0mph /  4.8km/h 14.0mph /  22.5km/h 45% 0.00in /  0mm
02:39 20.6 °F /  -6.3 °C 2.6 °F /  -16.3 °C 30.16in /  1021.2hPa NNE 2.0mph /  3.2km/h 16.0mph /  25.7km/h 45% 0.00in /  0mm
02:44 20.5 °F /  -6.4 °C 2.5 °F /  -16.4 °C 30.16in /  1021.2hPa North 2.0mph /  3.2km/h 16.0mph /  25.7km/h 45% 0.00in /  0mm
02:55 20.3 °F /  -6.5 °C 1.8 °F /  -16.8 °C 30.16in /  1021.2hPa NNW 2.0mph /  3.2km/h 13.0mph /  20.9km/h 44% 0.00in /  0mm
03:04 20.0 °F /  -6.7 °C 1.6 °F /  -16.9 °C 30.17in /  1021.6hPa NNW 2.0mph /  3.2km/h 13.0mph /  20.9km/h 44% 0.00in /  0mm
03:09 19.8 °F /  -6.8 °C 1.9 °F /  -16.7 °C 30.17in /  1021.6hPa NNW 2.0mph /  3.2km/h 12.0mph /  19.3km/h 45% 0.00in /  0mm
03:14 19.7 °F /  -6.8 °C 2.2 °F /  -16.6 °C 30.17in /  1021.6hPa NNW 2.0mph /  3.2km/h 12.0mph /  19.3km/h 46% 0.00in /  0mm
03:19 19.7 °F /  -6.8 °C 1.8 °F /  -16.8 °C 30.17in /  1021.6hPa NNW 1.0mph /  1.6km/h 9.0mph /  14.5km/h 45% 0.00in /  0mm
03:24 19.4 °F /  -7 °C 2.0 °F /  -16.7 °C 30.17in /  1021.6hPa North 2.0mph /  3.2km/h 9.0mph /  14.5km/h 46% 0.00in /  0mm
03:29 19.4 °F /  -7 °C 2.0 °F /  -16.7 °C 30.17in /  1021.6hPa North 1.0mph /  1.6km/h 13.0mph /  20.9km/h 46% 0.00in /  0mm
03:34 19.4 °F /  -7 °C 1.5 °F /  -16.9 °C 30.18in /  1021.9hPa NNW 3.0mph /  4.8km/h 13.0mph /  20.9km/h 45% 0.00in /  0mm
03:39 19.4 °F /  -7 °C 2.0 °F /  -16.7 °C 30.18in /  1021.9hPa North 1.0mph /  1.6km/h 12.0mph /  19.3km/h 46% 0.00in /  0mm
03:44 19.3 °F /  -7.1 °C 1.9 °F /  -16.7 °C 30.18in /  1021.9hPa NNW 4.0mph /  6.4km/h 12.0mph /  19.3km/h 46% 0.00in /  0mm
03:50 19.2 °F /  -7.1 °C 2.3 °F /  -16.5 °C 30.18in /  1021.9hPa North 2.0mph /  3.2km/h 11.0mph /  17.7km/h 47% 0.00in /  0mm
03:59 19.2 °F /  -7.1 °C 1.8 °F /  -16.8 °C 30.19in /  1022.2hPa North 2.0mph /  3.2km/h 13.0mph /  20.9km/h 46% 0.00in /  0mm
04:04 19.1 °F /  -7.2 °C 2.2 °F /  -16.6 °C 30.19in /  1022.2hPa North 3.0mph /  4.8km/h 11.0mph /  17.7km/h 47% 0.00in /  0mm
04:09 19.0 °F /  -7.2 °C 2.1 °F /  -16.6 °C 30.19in /  1022.2hPa North 2.0mph /  3.2km/h 11.0mph /  17.7km/h 47% 0.00in /  0mm
04:14 19.0 °F /  -7.2 °C 1.6 °F /  -16.9 °C 30.19in /  1022.2hPa North 3.0mph /  4.8km/h 10.0mph /  16.1km/h 46% 0.00in /  0mm
04:19 19.0 °F /  -7.2 °C 2.1 °F /  -16.6 °C 30.19in /  1022.2hPa North 1.0mph /  1.6km/h 15.0mph /  24.1km/h 47% 0.00in /  0mm
04:24 18.8 °F /  -7.3 °C 1.9 °F /  -16.7 °C 30.19in /  1022.2hPa North 1.0mph /  1.6km/h 15.0mph /  24.1km/h 47% 0.00in /  0mm
04:29 18.8 °F /  -7.3 °C 1.9 °F /  -16.7 °C 30.19in /  1022.2hPa North 1.0mph /  1.6km/h 10.0mph /  16.1km/h 47% 0.00in /  0mm
04:34 18.9 °F /  -7.3 °C 2.0 °F /  -16.7 °C 30.20in /  1022.6hPa NNE 3.0mph /  4.8km/h 11.0mph /  17.7km/h 47% 0.00in /  0mm
04:39 18.9 °F /  -7.3 °C 2.0 °F /  -16.7 °C 30.20in /  1022.6hPa North 2.0mph /  3.2km/h 11.0mph /  17.7km/h 47% 0.00in /  0mm
04:44 18.8 °F /  -7.3 °C 1.9 °F /  -16.7 °C 30.20in /  1022.6hPa NNE 4.0mph /  6.4km/h 11.0mph /  17.7km/h 47% 0.00in /  0mm
04:49 18.8 °F /  -7.3 °C 2.3 °F /  -16.5 °C 30.20in /  1022.6hPa North 1.0mph /  1.6km/h 11.0mph /  17.7km/h 48% 0.00in /  0mm
04:54 18.6 °F /  -7.4 °C 2.2 °F /  -16.6 °C 30.21in /  1022.9hPa Calm   11.0mph /  17.7km/h 48% 0.00in /  0mm
04:59 18.4 °F /  -7.6 °C 2.0 °F /  -16.7 °C 30.21in /  1022.9hPa NNE 1.0mph /  1.6km/h 9.0mph /  14.5km/h 48% 0.00in /  0mm
05:04 18.3 °F /  -7.6 °C 2.3 °F /  -16.5 °C 30.22in /  1023.2hPa North 1.0mph /  1.6km/h 9.0mph /  14.5km/h 49% 0.00in /  0mm
05:09 18.2 °F /  -7.7 °C 1.8 °F /  -16.8 °C 30.22in /  1023.2hPa NNE 2.0mph /  3.2km/h 8.0mph /  12.9km/h 48% 0.00in /  0mm
05:14 18.1 °F /  -7.7 °C 2.6 °F /  -16.3 °C 30.22in /  1023.2hPa NNE 1.0mph /  1.6km/h 9.0mph /  14.5km/h 50% 0.00in /  0mm
05:20 18.0 °F /  -7.8 °C 2.5 °F /  -16.4 °C 30.22in /  1023.2hPa Calm   10.0mph /  16.1km/h 50% 0.00in /  0mm
05:29 17.7 °F /  -7.9 °C 2.6 °F /  -16.3 °C 30.23in /  1023.6hPa North 2.0mph /  3.2km/h 12.0mph /  19.3km/h 51% 0.00in /  0mm
05:34 17.7 °F /  -7.9 °C 2.2 °F /  -16.6 °C 30.23in /  1023.6hPa North 4.0mph /  6.4km/h 12.0mph /  19.3km/h 50% 0.00in /  0mm
05:39 17.7 °F /  -7.9 °C 2.6 °F /  -16.3 °C 30.23in /  1023.6hPa NNW 2.0mph /  3.2km/h 12.0mph /  19.3km/h 51% 0.00in /  0mm
05:44 17.7 °F /  -7.9 °C 2.6 °F /  -16.3 °C 30.23in /  1023.6hPa North 1.0mph /  1.6km/h 14.0mph /  22.5km/h 51% 0.00in /  0mm
05:49 17.6 °F /  -8 °C 2.5 °F /  -16.4 °C 30.23in /  1023.6hPa North 1.0mph /  1.6km/h 14.0mph /  22.5km/h 51% 0.00in /  0mm
05:55 17.5 °F /  -8.1 °C 3.3 °F /  -15.9 °C 30.23in /  1023.6hPa Calm   8.0mph /  12.9km/h 53% 0.00in /  0mm
06:04 17.4 °F /  -8.1 °C 2.3 °F /  -16.5 °C 30.23in /  1023.6hPa North 1.0mph /  1.6km/h 8.0mph /  12.9km/h 51% 0.00in /  0mm
06:09 17.5 °F /  -8.1 °C 2.4 °F /  -16.4 °C 30.24in /  1023.9hPa North 2.0mph /  3.2km/h 8.0mph /  12.9km/h 51% 0.00in /  0mm
06:14 17.5 °F /  -8.1 °C 2.4 °F /  -16.4 °C 30.24in /  1023.9hPa NNE 1.0mph /  1.6km/h 12.0mph /  19.3km/h 51% 0.00in /  0mm
06:19 17.4 °F /  -8.1 °C 2.3 °F /  -16.5 °C 30.24in /  1023.9hPa NNW 1.0mph /  1.6km/h 12.0mph /  19.3km/h 51% 0.00in /  0mm
06:24 17.2 °F /  -8.2 °C 2.2 °F /  -16.6 °C 30.24in /  1023.9hPa NNW 1.0mph /  1.6km/h 10.0mph /  16.1km/h 51% 0.00in /  0mm
06:29 17.0 °F /  -8.3 °C 2.4 °F /  -16.4 °C 30.25in /  1024.3hPa Calm   4.0mph /  6.4km/h 52% 0.00in /  0mm
06:34 16.8 °F /  -8.4 °C 2.2 °F /  -16.6 °C 30.25in /  1024.3hPa North 1.0mph /  1.6km/h 4.0mph /  6.4km/h 52% 0.00in /  0mm
06:39 16.7 °F /  -8.5 °C 2.5 °F /  -16.4 °C 30.25in /  1024.3hPa North 1.0mph /  1.6km/h 4.0mph /  6.4km/h 53% 0.00in /  0mm
06:44 16.5 °F /  -8.6 °C 2.7 °F /  -16.3 °C 30.25in /  1024.3hPa NNW 1.0mph /  1.6km/h 8.0mph /  12.9km/h 54% 0.00in /  0mm
06:49 16.5 °F /  -8.6 °C 2.7 °F /  -16.3 °C 30.25in /  1024.3hPa North 1.0mph /  1.6km/h 9.0mph /  14.5km/h 54% 0.00in /  0mm
06:54 16.6 °F /  -8.6 °C 3.2 °F /  -16 °C 30.26in /  1024.6hPa NNW 1.0mph /  1.6km/h 9.0mph /  14.5km/h 55% 0.00in /  0mm
06:59 16.7 °F /  -8.5 °C 2.9 °F /  -16.2 °C 30.26in /  1024.6hPa NNW 1.0mph /  1.6km/h 8.0mph /  12.9km/h 54% 0.00in /  0mm
07:04 16.8 °F /  -8.4 °C 3.0 °F /  -16.1 °C 30.26in /  1024.6hPa North 2.0mph /  3.2km/h 10.0mph /  16.1km/h 54% 0.00in /  0mm
07:09 16.9 °F /  -8.4 °C 3.1 °F /  -16.1 °C 30.26in /  1024.6hPa North 2.0mph /  3.2km/h 10.0mph /  16.1km/h 54% 0.00in /  0mm
07:14 16.9 °F /  -8.4 °C 3.1 °F /  -16.1 °C 30.26in /  1024.6hPa North 1.0mph /  1.6km/h 8.0mph /  12.9km/h 54% 0.00in /  0mm
07:19 17.0 °F /  -8.3 °C 3.2 °F /  -16 °C 30.26in /  1024.6hPa NNW 1.0mph /  1.6km/h 10.0mph /  16.1km/h 54% 0.00in /  0mm
07:24 17.1 °F /  -8.3 °C 3.3 °F /  -15.9 °C 30.27in /  1024.9hPa Calm   10.0mph /  16.1km/h 54% 0.00in /  0mm
07:29 17.2 °F /  -8.2 °C 3.4 °F /  -15.9 °C 30.27in /  1024.9hPa North 2.0mph /  3.2km/h 9.0mph /  14.5km/h 54% 0.00in /  0mm
07:34 17.3 °F /  -8.2 °C 3.5 °F /  -15.8 °C 30.27in /  1024.9hPa Calm   9.0mph /  14.5km/h 54% 0.00in /  0mm
07:39 17.5 °F /  -8.1 °C 3.7 °F /  -15.7 °C 30.28in /  1025.3hPa NNW 3.0mph /  4.8km/h 8.0mph /  12.9km/h 54% 0.00in /  0mm
07:44 17.6 °F /  -8 °C 4.2 °F /  -15.4 °C 30.28in /  1025.3hPa Calm   8.0mph /  12.9km/h 55% 0.00in /  0mm
07:50 17.8 °F /  -7.9 °C 4.4 °F /  -15.3 °C 30.28in /  1025.3hPa North 1.0mph /  1.6km/h 10.0mph /  16.1km/h 55% 0.00in /  0mm
07:59 18.2 °F /  -7.7 °C 4.7 °F /  -15.2 °C 30.29in /  1025.6hPa North 1.0mph /  1.6km/h 15.0mph /  24.1km/h 55% 0.00in /  0mm
08:05 18.2 °F /  -7.7 °C 3.9 °F /  -15.6 °C 30.29in /  1025.6hPa North 2.0mph /  3.2km/h 15.0mph /  24.1km/h 53% 0.00in /  0mm
08:14 18.6 °F /  -7.4 °C 4.3 °F /  -15.4 °C 30.29in /  1025.6hPa NNW 3.0mph /  4.8km/h 12.0mph /  19.3km/h 53% 0.00in /  0mm
08:19 18.9 °F /  -7.3 °C 4.2 °F /  -15.4 °C 30.29in /  1025.6hPa NNE 2.0mph /  3.2km/h 15.0mph /  24.1km/h 52% 0.00in /  0mm
08:24 19.6 °F /  -6.9 °C 4.8 °F /  -15.1 °C 30.30in /  1026hPa NNW 3.0mph /  4.8km/h 15.0mph /  24.1km/h 52% 0.00in /  0mm
08:29 20.3 °F /  -6.5 °C 5.0 °F /  -15 °C 30.30in /  1026hPa North 4.0mph /  6.4km/h 12.0mph /  19.3km/h 51% 0.00in /  0mm
08:34 20.8 °F /  -6.2 °C 5.1 °F /  -14.9 °C 30.30in /  1026hPa NNE 3.0mph /  4.8km/h 13.0mph /  20.9km/h 50% 0.00in /  0mm
08:39 21.5 °F /  -5.8 °C 5.7 °F /  -14.6 °C 30.30in /  1026hPa North 4.0mph /  6.4km/h 13.0mph /  20.9km/h 50% 0.00in /  0mm
08:44 21.6 °F /  -5.8 °C 5.8 °F /  -14.6 °C 30.30in /  1026hPa NNE 3.0mph /  4.8km/h 15.0mph /  24.1km/h 50% 0.00in /  0mm
08:49 21.8 °F /  -5.7 °C 5.6 °F /  -14.7 °C 30.30in /  1026hPa North 3.0mph /  4.8km/h 15.0mph /  24.1km/h 49% 0.00in /  0mm
08:54 22.0 °F /  -5.6 °C 4.8 °F /  -15.1 °C 30.29in /  1025.6hPa North 4.0mph /  6.4km/h 14.0mph /  22.5km/h 47% 0.00in /  0mm
08:59 22.2 °F /  -5.4 °C 6.4 °F /  -14.2 °C 30.29in /  1025.6hPa North 2.0mph /  3.2km/h 11.0mph /  17.7km/h 50% 0.00in /  0mm
09:04 22.6 °F /  -5.2 °C 5.4 °F /  -14.8 °C 30.29in /  1025.6hPa North 1.0mph /  1.6km/h 11.0mph /  17.7km/h 47% 0.00in /  0mm
09:09 22.8 °F /  -5.1 °C 6.0 °F /  -14.4 °C 30.29in /  1025.6hPa NNE 3.0mph /  4.8km/h 11.0mph /  17.7km/h 48% 0.00in /  0mm
09:14 22.8 °F /  -5.1 °C 6.0 °F /  -14.4 °C 30.29in /  1025.6hPa NNW 6.0mph /  9.7km/h 16.0mph /  25.7km/h 48% 0.00in /  0mm
09:19 22.9 °F /  -5.1 °C 6.1 °F /  -14.4 °C 30.29in /  1025.6hPa NNW 3.0mph /  4.8km/h 16.0mph /  25.7km/h 48% 0.00in /  0mm
09:24 22.8 °F /  -5.1 °C 5.1 °F /  -14.9 °C 30.29in /  1025.6hPa NNW 7.0mph /  11.3km/h 16.0mph /  25.7km/h 46% 0.00in /  0mm
09:29 22.8 °F /  -5.1 °C 5.6 °F /  -14.7 °C 30.30in /  1026hPa NNE 2.0mph /  3.2km/h 16.0mph /  25.7km/h 47% 0.00in /  0mm
09:34 23.1 °F /  -4.9 °C 6.3 °F /  -14.3 °C 30.30in /  1026hPa North 1.0mph /  1.6km/h 14.0mph /  22.5km/h 48% 0.00in /  0mm
09:39 23.8 °F /  -4.6 °C 6.0 °F /  -14.4 °C 30.30in /  1026hPa NNE 3.0mph /  4.8km/h 14.0mph /  22.5km/h 46% 0.00in /  0mm
09:44 24.1 °F /  -4.4 °C 5.8 °F /  -14.6 °C 30.30in /  1026hPa NNE 4.0mph /  6.4km/h 14.0mph /  22.5km/h 45% 0.00in /  0mm
09:50 24.3 °F /  -4.3 °C 6.5 °F /  -14.2 °C 30.30in /  1026hPa NNW 2.0mph /  3.2km/h 11.0mph /  17.7km/h 46% 0.00in /  0mm
10:00 25.1 °F /  -3.8 °C 6.7 °F /  -14.1 °C 30.31in /  1026.3hPa North 4.0mph /  6.4km/h 11.0mph /  17.7km/h 45% 0.00in /  0mm
10:09 25.6 °F /  -3.6 °C 7.7 °F /  -13.5 °C 30.31in /  1026.3hPa NNE 2.0mph /  3.2km/h 13.0mph /  20.9km/h 46% 0.00in /  0mm
10:14 25.8 °F /  -3.4 °C 6.4 °F /  -14.2 °C 30.31in /  1026.3hPa NNE 3.0mph /  4.8km/h 12.0mph /  19.3km/h 43% 0.00in /  0mm
10:19 26.0 °F /  -3.3 °C 6.6 °F /  -14.1 °C 30.31in /  1026.3hPa NNW 3.0mph /  4.8km/h 11.0mph /  17.7km/h 43% 0.00in /  0mm
10:24 26.4 °F /  -3.1 °C 8.4 °F /  -13.1 °C 30.32in /  1026.6hPa NNW 2.0mph /  3.2km/h 12.0mph /  19.3km/h 46% 0.00in /  0mm
10:30 26.3 °F /  -3.2 °C 8.3 °F /  -13.2 °C 30.32in /  1026.6hPa NNW 6.0mph /  9.7km/h 16.0mph /  25.7km/h 46% 0.00in /  0mm
10:39 26.0 °F /  -3.3 °C 8.0 °F /  -13.3 °C 30.32in /  1026.6hPa North 4.0mph /  6.4km/h 16.0mph /  25.7km/h 46% 0.00in /  0mm
10:44 26.4 °F /  -3.1 °C 8.4 °F /  -13.1 °C 30.32in /  1026.6hPa North 3.0mph /  4.8km/h 16.0mph /  25.7km/h 46% 0.00in /  0mm
10:50 26.3 °F /  -3.2 °C 8.3 °F /  -13.2 °C 30.32in /  1026.6hPa NNW 3.0mph /  4.8km/h 12.0mph /  19.3km/h 46% 0.00in /  0mm
10:59 27.2 °F /  -2.7 °C 8.7 °F /  -12.9 °C 30.32in /  1026.6hPa NNW 3.0mph /  4.8km/h 12.0mph /  19.3km/h 45% 0.00in /  0mm
11:04 27.1 °F /  -2.7 °C 7.0 °F /  -13.9 °C 30.32in /  1026.6hPa NNE 4.0mph /  6.4km/h 13.0mph /  20.9km/h 42% 0.00in /  0mm
11:09 27.4 °F /  -2.6 °C 8.8 °F /  -12.9 °C 30.32in /  1026.6hPa North 4.0mph /  6.4km/h 13.0mph /  20.9km/h 45% 0.00in /  0mm
11:14 27.2 °F /  -2.7 °C 7.1 °F /  -13.8 °C 30.32in /  1026.6hPa North 5.0mph /  8km/h 14.0mph /  22.5km/h 42% 0.00in /  0mm
11:19 27.3 °F /  -2.6 °C 8.2 °F /  -13.2 °C 30.32in /  1026.6hPa NNW 5.0mph /  8km/h 14.0mph /  22.5km/h 44% 0.00in /  0mm
11:24 27.5 °F /  -2.5 °C 8.4 °F /  -13.1 °C 30.32in /  1026.6hPa North 5.0mph /  8km/h 13.0mph /  20.9km/h 44% 0.00in /  0mm
11:29 27.3 °F /  -2.6 °C 6.7 °F /  -14.1 °C 30.32in /  1026.6hPa NNW 6.0mph /  9.7km/h 13.0mph /  20.9km/h 41% 0.00in /  0mm
11:34 27.6 °F /  -2.4 °C 8.0 °F /  -13.3 °C 30.32in /  1026.6hPa North 5.0mph /  8km/h 13.0mph /  20.9km/h 43% 0.00in /  0mm
11:39 28.0 °F /  -2.2 °C 6.8 °F /  -14 °C 30.32in /  1026.6hPa North 4.0mph /  6.4km/h 15.0mph /  24.1km/h 40% 0.00in /  0mm
11:44 28.1 °F /  -2.2 °C 9.0 °F /  -12.8 °C 30.32in /  1026.6hPa North 4.0mph /  6.4km/h 15.0mph /  24.1km/h 44% 0.00in /  0mm
11:49 28.6 °F /  -1.9 °C 6.8 °F /  -14 °C 30.32in /  1026.6hPa North 2.0mph /  3.2km/h 7.0mph /  11.3km/h 39% 0.00in /  0mm
11:54 28.1 °F /  -2.2 °C 6.9 °F /  -13.9 °C 30.32in /  1026.6hPa NW 9.0mph /  14.5km/h 15.0mph /  24.1km/h 40% 0.00in /  0mm
11:59 27.9 °F /  -2.3 °C 9.8 °F /  -12.3 °C 30.32in /  1026.6hPa NNW 3.0mph /  4.8km/h 15.0mph /  24.1km/h 46% 0.00in /  0mm
12:04 28.3 °F /  -2.1 °C 8.1 °F /  -13.3 °C 30.31in /  1026.3hPa North 2.0mph /  3.2km/h 16.0mph /  25.7km/h 42% 0.00in /  0mm
12:09 28.4 °F /  -2 °C 8.2 °F /  -13.2 °C 30.31in /  1026.3hPa NW 7.0mph /  11.3km/h 16.0mph /  25.7km/h 42% 0.00in /  0mm
12:14 28.7 °F /  -1.8 °C 9.5 °F /  -12.5 °C 30.31in /  1026.3hPa NNW 3.0mph /  4.8km/h 12.0mph /  19.3km/h 44% 0.00in /  0mm
12:19 28.7 °F /  -1.8 °C 8.5 °F /  -13.1 °C 30.31in /  1026.3hPa NW 6.0mph /  9.7km/h 17.0mph /  27.4km/h 42% 0.00in /  0mm
12:24 29.0 °F /  -1.7 °C 8.8 °F /  -12.9 °C 30.31in /  1026.3hPa NNE 3.0mph /  4.8km/h 17.0mph /  27.4km/h 42% 0.00in /  0mm
12:29 29.6 °F /  -1.3 °C 8.8 °F /  -12.9 °C 30.32in /  1026.6hPa NNW 6.0mph /  9.7km/h 16.0mph /  25.7km/h 41% 0.00in /  0mm
12:34 29.4 °F /  -1.4 °C 8.6 °F /  -13 °C 30.32in /  1026.6hPa NNW 4.0mph /  6.4km/h 16.0mph /  25.7km/h 41% 0.00in /  0mm
12:39 29.2 °F /  -1.6 °C 8.9 °F /  -12.8 °C 30.30in /  1026hPa NNW 4.0mph /  6.4km/h 10.0mph /  16.1km/h 42% 0.00in /  0mm
12:44 30.1 °F /  -1.1 °C 9.8 °F /  -12.3 °C 30.31in /  1026.3hPa NNW 1.0mph /  1.6km/h 9.0mph /  14.5km/h 42% 0.00in /  0mm
12:49 30.3 °F /  -0.9 °C 8.9 °F /  -12.8 °C 30.30in /  1026hPa NNE 3.0mph /  4.8km/h 9.0mph /  14.5km/h 40% 0.00in /  0mm
12:54 30.2 °F /  -1 °C 10.9 °F /  -11.7 °C 30.29in /  1025.6hPa NNW 1.0mph /  1.6km/h 9.0mph /  14.5km/h 44% 0.00in /  0mm
12:59 30.7 °F /  -0.7 °C 9.8 °F /  -12.3 °C 30.30in /  1026hPa North 4.0mph /  6.4km/h 11.0mph /  17.7km/h 41% 0.00in /  0mm
13:04 30.3 °F /  -0.9 °C 7.1 °F /  -13.8 °C 30.30in /  1026hPa NNE 1.0mph /  1.6km/h 11.0mph /  17.7km/h 37% 0.00in /  0mm
13:09 30.2 °F /  -1 °C 8.8 °F /  -12.9 °C 30.30in /  1026hPa NNW 2.0mph /  3.2km/h 11.0mph /  17.7km/h 40% 0.00in /  0mm
13:14 30.9 °F /  -0.6 °C 8.8 °F /  -12.9 °C 30.29in /  1025.6hPa NNW 2.0mph /  3.2km/h 9.0mph /  14.5km/h 39% 0.00in /  0mm
13:19 31.0 °F /  -0.6 °C 8.3 °F /  -13.2 °C 30.28in /  1025.3hPa NW 5.0mph /  8km/h 11.0mph /  17.7km/h 38% 0.00in /  0mm
13:24 31.2 °F /  -0.4 °C 6.7 °F /  -14.1 °C 30.29in /  1025.6hPa Calm   11.0mph /  17.7km/h 35% 0.00in /  0mm
13:29 31.5 °F /  -0.3 °C 8.8 °F /  -12.9 °C 30.29in /  1025.6hPa NNW 4.0mph /  6.4km/h 10.0mph /  16.1km/h 38% 0.00in /  0mm
13:34 31.7 °F /  -0.2 °C 8.4 °F /  -13.1 °C 30.28in /  1025.3hPa NW 3.0mph /  4.8km/h 10.0mph /  16.1km/h 37% 0.00in /  0mm
13:40 31.7 °F /  -0.2 °C 7.8 °F /  -13.4 °C 30.28in /  1025.3hPa NW 9.0mph /  14.5km/h 15.0mph /  24.1km/h 36% 0.00in /  0mm
13:49 32.0 °F /  0 °C 8.0 °F /  -13.3 °C 30.27in /  1024.9hPa NNE 1.0mph /  1.6km/h 17.0mph /  27.4km/h 36% 0.00in /  0mm
13:59 32.0 °F /  0 °C 7.4 °F /  -13.7 °C 30.27in /  1024.9hPa North 2.0mph /  3.2km/h 15.0mph /  24.1km/h 35% 0.00in /  0mm
14:04 32.0 °F /  0 °C 8.7 °F /  -12.9 °C 30.27in /  1024.9hPa Calm   6.0mph /  9.7km/h 37% 0.00in /  0mm
14:09 32.2 °F /  0.1 °C 7.6 °F /  -13.6 °C 30.27in /  1024.9hPa WNW 1.0mph /  1.6km/h 10.0mph /  16.1km/h 35% 0.00in /  0mm
14:14 32.5 °F /  0.3 °C 9.1 °F /  -12.7 °C 30.27in /  1024.9hPa NW 3.0mph /  4.8km/h 10.0mph /  16.1km/h 37% 0.00in /  0mm
14:19 32.8 °F /  0.4 °C 8.1 °F /  -13.3 °C 30.26in /  1024.6hPa WNW 3.0mph /  4.8km/h 9.0mph /  14.5km/h 35% 0.00in /  0mm
14:25 33.2 °F /  0.7 °C 8.5 °F /  -13.1 °C 30.26in /  1024.6hPa NE 2.0mph /  3.2km/h 9.0mph /  14.5km/h 35% 0.00in /  0mm
14:34 33.3 °F /  0.7 °C 7.9 °F /  -13.4 °C 30.25in /  1024.3hPa NNW 5.0mph /  8km/h 11.0mph /  17.7km/h 34% 0.00in /  0mm
14:39 32.8 °F /  0.4 °C 8.1 °F /  -13.3 °C 30.25in /  1024.3hPa NW 4.0mph /  6.4km/h 12.0mph /  19.3km/h 35% 0.00in /  0mm
14:45 33.3 °F /  0.7 °C 8.6 °F /  -13 °C 30.25in /  1024.3hPa Calm   12.0mph /  19.3km/h 35% 0.00in /  0mm
14:50 33.9 °F /  1.1 °C 8.5 °F /  -13.1 °C 30.25in /  1024.3hPa NW 4.0mph /  6.4km/h 6.0mph /  9.7km/h 34% 0.00in /  0mm
14:55 33.9 °F /  1.1 °C 8.5 °F /  -13.1 °C 30.25in /  1024.3hPa Calm   6.0mph /  9.7km/h 34% 0.00in /  0mm
15:04 34.3 °F /  1.3 °C 6.8 °F /  -14 °C 30.25in /  1024.3hPa NW 1.0mph /  1.6km/h 8.0mph /  12.9km/h 31% 0.00in /  0mm
15:09 34.1 °F /  1.2 °C 6.6 °F /  -14.1 °C 30.24in /  1023.9hPa NNE 3.0mph /  4.8km/h 8.0mph /  12.9km/h 31% 0.00in /  0mm
15:14 34.2 °F /  1.2 °C 8.1 °F /  -13.3 °C 30.24in /  1023.9hPa North 1.0mph /  1.6km/h 6.0mph /  9.7km/h 33% 0.00in /  0mm
15:19 34.4 °F /  1.3 °C 8.2 °F /  -13.2 °C 30.23in /  1023.6hPa NNW 1.0mph /  1.6km/h 5.0mph /  8km/h 33% 0.00in /  0mm
15:24 34.4 °F /  1.3 °C 6.9 °F /  -13.9 °C 30.23in /  1023.6hPa Calm   6.0mph /  9.7km/h 31% 0.00in /  0mm
15:29 34.4 °F /  1.3 °C 6.9 °F /  -13.9 °C 30.23in /  1023.6hPa NNE 2.0mph /  3.2km/h 11.0mph /  17.7km/h 31% 0.00in /  0mm
15:34 34.7 °F /  1.5 °C 7.8 °F /  -13.4 °C 30.23in /  1023.6hPa North 3.0mph /  4.8km/h 11.0mph /  17.7km/h 32% 0.00in /  0mm
15:39 34.9 °F /  1.6 °C 6.6 °F /  -14.1 °C 30.23in /  1023.6hPa NNW 1.0mph /  1.6km/h 7.0mph /  11.3km/h 30% 0.00in /  0mm
15:44 34.9 °F /  1.6 °C 6.6 °F /  -14.1 °C 30.22in /  1023.2hPa Calm   5.0mph /  8km/h 30% 0.00in /  0mm
15:49 34.8 °F /  1.6 °C 9.3 °F /  -12.6 °C 30.22in /  1023.2hPa North 2.0mph /  3.2km/h 8.0mph /  12.9km/h 34% 0.00in /  0mm
15:54 35.0 °F /  1.7 °C 6.7 °F /  -14.1 °C 30.22in /  1023.2hPa NW 1.0mph /  1.6km/h 8.0mph /  12.9km/h 30% 0.00in /  0mm
15:59 35.0 °F /  1.7 °C 7.4 °F /  -13.7 °C 30.22in /  1023.2hPa NW 3.0mph /  4.8km/h 6.0mph /  9.7km/h 31% 0.00in /  0mm
16:04 35.1 °F /  1.7 °C 6.8 °F /  -14 °C 30.22in /  1023.2hPa NNE 1.0mph /  1.6km/h 7.0mph /  11.3km/h 30% 0.00in /  0mm
16:09 35.2 °F /  1.8 °C 6.8 °F /  -14 °C 30.22in /  1023.2hPa Calm   7.0mph /  11.3km/h 30% 0.00in /  0mm
16:14 35.5 °F /  1.9 °C 7.8 °F /  -13.4 °C 30.22in /  1023.2hPa Calm   4.0mph /  6.4km/h 31% 0.00in /  0mm
16:19 35.6 °F /  2 °C 5.7 °F /  -14.6 °C 30.22in /  1023.2hPa NNE 1.0mph /  1.6km/h 5.0mph /  8km/h 28% 0.00in /  0mm
16:24 35.2 °F /  1.8 °C 6.1 °F /  -14.4 °C 30.21in /  1022.9hPa NNW 1.0mph /  1.6km/h 5.0mph /  8km/h 29% 0.00in /  0mm
16:29 35.0 °F /  1.7 °C 4.4 °F /  -15.3 °C 30.21in /  1022.9hPa NW 3.0mph /  4.8km/h 6.0mph /  9.7km/h 27% 0.00in /  0mm
16:34 34.9 °F /  1.6 °C 5.1 °F /  -14.9 °C 30.22in /  1023.2hPa WNW 4.0mph /  6.4km/h 9.0mph /  14.5km/h 28% 0.00in /  0mm
16:44 34.9 °F /  1.6 °C 5.8 °F /  -14.6 °C 30.21in /  1022.9hPa West 4.0mph /  6.4km/h 8.0mph /  12.9km/h 29% 0.00in /  0mm
16:50 34.7 °F /  1.5 °C 4.9 °F /  -15.1 °C 30.22in /  1023.2hPa WNW 4.0mph /  6.4km/h 8.0mph /  12.9km/h 28% 0.00in /  0mm
16:59 34.4 °F /  1.3 °C 5.4 °F /  -14.8 °C 30.21in /  1022.9hPa NW 1.0mph /  1.6km/h 12.0mph /  19.3km/h 29% 0.00in /  0mm
17:04 34.4 °F /  1.3 °C 4.6 °F /  -15.2 °C 30.22in /  1023.2hPa WNW 1.0mph /  1.6km/h 6.0mph /  9.7km/h 28% 0.00in /  0mm
17:09 34.3 °F /  1.3 °C 3.8 °F /  -15.7 °C 30.21in /  1022.9hPa West 2.0mph /  3.2km/h 6.0mph /  9.7km/h 27% 0.00in /  0mm
17:14 34.2 °F /  1.2 °C 4.5 °F /  -15.3 °C 30.22in /  1023.2hPa West 4.0mph /  6.4km/h 8.0mph /  12.9km/h 28% 0.00in /  0mm
17:19 34.1 °F /  1.2 °C 3.6 °F /  -15.8 °C 30.22in /  1023.2hPa NW 2.0mph /  3.2km/h 8.0mph /  12.9km/h 27% 0.00in /  0mm
17:24 33.9 °F /  1.1 °C 4.2 °F /  -15.4 °C 30.22in /  1023.2hPa Calm   5.0mph /  8km/h 28% 0.00in /  0mm
17:29 34.1 °F /  1.2 °C 4.4 °F /  -15.3 °C 30.21in /  1022.9hPa Calm   5.0mph /  8km/h 28% 0.00in /  0mm
17:34 34.4 °F /  1.3 °C 5.4 °F /  -14.8 °C 30.21in /  1022.9hPa Calm   4.0mph /  6.4km/h 29% 0.00in /  0mm
17:39 34.4 °F /  1.3 °C 4.6 °F /  -15.2 °C 30.22in /  1023.2hPa Calm   2.0mph /  3.2km/h 28% 0.00in /  0mm
17:44 34.7 °F /  1.5 °C 4.9 °F /  -15.1 °C 30.21in /  1022.9hPa Calm   2.0mph /  3.2km/h 28% 0.00in /  0mm
17:50 34.8 °F /  1.6 °C 3.4 °F /  -15.9 °C 30.21in /  1022.9hPa North 1.0mph /  1.6km/h 3.0mph /  4.8km/h 26% 0.00in /  0mm
17:59 33.8 °F /  1 °C 0.8 °F /  -17.3 °C 30.21in /  1022.9hPa North 2.0mph /  3.2km/h 4.0mph /  6.4km/h 24% 0.00in /  0mm
18:04 33.2 °F /  0.7 °C 2.8 °F /  -16.2 °C 30.21in /  1022.9hPa Calm   4.0mph /  6.4km/h 27% 0.00in /  0mm
18:09 32.8 °F /  0.4 °C 0.8 °F /  -17.3 °C 30.21in /  1022.9hPa Calm   3.0mph /  4.8km/h 25% 0.00in /  0mm
18:14 32.5 °F /  0.3 °C 3.7 °F /  -15.7 °C 30.21in /  1022.9hPa Calm   3.0mph /  4.8km/h 29% 0.00in /  0mm
18:19 32.1 °F /  0.1 °C 4.1 °F /  -15.5 °C 30.21in /  1022.9hPa North 1.0mph /  1.6km/h 4.0mph /  6.4km/h 30% 0.00in /  0mm
18:24 31.8 °F /  -0.1 °C 4.6 °F /  -15.2 °C 30.21in /  1022.9hPa Calm   4.0mph /  6.4km/h 31% 0.00in /  0mm
18:29 31.6 °F /  -0.2 °C 3.7 °F /  -15.7 °C 30.21in /  1022.9hPa Calm   2.0mph /  3.2km/h 30% 0.00in /  0mm
18:35 31.4 °F /  -0.3 °C 3.5 °F /  -15.8 °C 30.21in /  1022.9hPa Calm   1.0mph /  1.6km/h 30% 0.00in /  0mm
18:44 31.1 °F /  -0.5 °C 5.3 °F /  -14.8 °C 30.20in /  1022.6hPa Calm   4.0mph /  6.4km/h 33% 0.00in /  0mm
18:49 31.3 °F /  -0.4 °C 4.8 °F /  -15.1 °C 30.19in /  1022.2hPa Calm   4.0mph /  6.4km/h 32% 0.00in /  0mm
18:54 31.4 °F /  -0.3 °C 4.9 °F /  -15.1 °C 30.19in /  1022.2hPa Calm   2.0mph /  3.2km/h 32% 0.00in /  0mm
18:59 31.5 °F /  -0.3 °C 5.7 °F /  -14.6 °C 30.19in /  1022.2hPa Calm     33% 0.00in /  0mm
19:04 31.3 °F /  -0.4 °C 4.8 °F /  -15.1 °C 30.19in /  1022.2hPa Calm     32% 0.00in /  0mm
19:09 31.1 °F /  -0.5 °C 6.6 °F /  -14.1 °C 30.19in /  1022.2hPa Calm     35% 0.00in /  0mm
19:14 30.8 °F /  -0.7 °C 7.0 °F /  -13.9 °C 30.19in /  1022.2hPa Calm     36% 0.00in /  0mm
19:19 30.3 °F /  -0.9 °C 5.9 °F /  -14.5 °C 30.19in /  1022.2hPa Calm     35% 0.00in /  0mm
19:24 30.0 °F /  -1.1 °C 5.0 °F /  -15 °C 30.19in /  1022.2hPa Calm     34% 0.00in /  0mm
19:29 29.7 °F /  -1.3 °C 6.6 °F /  -14.1 °C 30.19in /  1022.2hPa Calm     37% 0.00in /  0mm
19:34 29.4 °F /  -1.4 °C 6.9 °F /  -13.9 °C 30.18in /  1021.9hPa Calm     38% 0.00in /  0mm
19:39 29.0 °F /  -1.7 °C 7.1 °F /  -13.8 °C 30.17in /  1021.6hPa Calm   1.0mph /  1.6km/h 39% 0.00in /  0mm
19:44 28.7 °F /  -1.8 °C 6.8 °F /  -14 °C 30.17in /  1021.6hPa Calm   1.0mph /  1.6km/h 39% 0.00in /  0mm
19:49 28.6 °F /  -1.9 °C 6.2 °F /  -14.3 °C 30.17in /  1021.6hPa Calm   1.0mph /  1.6km/h 38% 0.00in /  0mm
19:54 28.5 °F /  -1.9 °C 6.1 °F /  -14.4 °C 30.17in /  1021.6hPa Calm   1.0mph /  1.6km/h 38% 0.00in /  0mm
19:59 28.4 °F /  -2 °C 7.7 °F /  -13.5 °C 30.17in /  1021.6hPa Calm     41% 0.00in /  0mm
20:04 28.0 °F /  -2.2 °C 8.4 °F /  -13.1 °C 30.17in /  1021.6hPa Calm     43% 0.00in /  0mm
20:09 27.4 °F /  -2.6 °C 7.8 °F /  -13.4 °C 30.17in /  1021.6hPa Calm     43% 0.00in /  0mm
20:14 26.9 °F /  -2.8 °C 7.9 °F /  -13.4 °C 30.17in /  1021.6hPa Calm   1.0mph /  1.6km/h 44% 0.00in /  0mm
20:19 26.9 °F /  -2.8 °C 7.9 °F /  -13.4 °C 30.17in /  1021.6hPa Calm   1.0mph /  1.6km/h 44% 0.00in /  0mm
20:25 27.0 °F /  -2.8 °C 8.0 °F /  -13.3 °C 30.16in /  1021.2hPa Calm     44% 0.00in /  0mm
20:35 26.4 °F /  -3.1 °C 10.7 °F /  -11.8 °C 30.17in /  1021.6hPa Calm     51% 0.00in /  0mm
20:40 25.8 °F /  -3.4 °C 10.2 °F /  -12.1 °C 30.17in /  1021.6hPa Calm     51% 0.00in /  0mm
20:49 25.7 °F /  -3.5 °C 8.7 °F /  -12.9 °C 30.17in /  1021.6hPa Calm     48% 0.00in /  0mm
20:54 25.8 °F /  -3.4 °C 7.4 °F /  -13.7 °C 30.16in /  1021.2hPa Calm     45% 0.00in /  0mm
21:04 25.8 °F /  -3.4 °C 10.2 °F /  -12.1 °C 30.16in /  1021.2hPa Calm     51% 0.00in /  0mm
21:09 26.0 °F /  -3.3 °C 9.0 °F /  -12.8 °C 30.16in /  1021.2hPa Calm     48% 0.00in /  0mm
21:14 26.3 °F /  -3.2 °C 9.7 °F /  -12.4 °C 30.15in /  1020.9hPa Calm     49% 0.00in /  0mm
21:19 26.9 °F /  -2.8 °C 12.9 °F /  -10.6 °C 30.15in /  1020.9hPa Calm     55% 0.00in /  0mm
21:24 27.1 °F /  -2.7 °C 10.9 °F /  -11.7 °C 30.15in /  1020.9hPa Calm     50% 0.00in /  0mm
21:29 27.2 °F /  -2.7 °C 11.0 °F /  -11.7 °C 30.15in /  1020.9hPa Calm     50% 0.00in /  0mm
21:34 27.3 °F /  -2.6 °C 12.4 °F /  -10.9 °C 30.15in /  1020.9hPa Calm     53% 0.00in /  0mm
21:39 27.4 °F /  -2.6 °C 10.7 °F /  -11.8 °C 30.14in /  1020.5hPa Calm     49% 0.00in /  0mm
21:44 27.6 °F /  -2.4 °C 11.4 °F /  -11.4 °C 30.14in /  1020.5hPa Calm     50% 0.00in /  0mm
21:49 27.8 °F /  -2.3 °C 11.6 °F /  -11.3 °C 30.13in /  1020.2hPa Calm     50% 0.00in /  0mm
21:55 27.9 °F /  -2.3 °C 12.5 °F /  -10.8 °C 30.13in /  1020.2hPa Calm     52% 0.00in /  0mm
22:04 27.8 °F /  -2.3 °C 15.3 °F /  -9.3 °C 30.14in /  1020.5hPa Calm     59% 0.00in /  0mm
22:09 27.8 °F /  -2.3 °C 15.7 °F /  -9.1 °C 30.14in /  1020.5hPa Calm     60% 0.00in /  0mm
22:14 27.8 °F /  -2.3 °C 15.7 °F /  -9.1 °C 30.14in /  1020.5hPa Calm     60% 0.00in /  0mm
22:19 27.9 °F /  -2.3 °C 14.2 °F /  -9.9 °C 30.14in /  1020.5hPa Calm     56% 0.00in /  0mm
22:24 28.0 °F /  -2.2 °C 13.1 °F /  -10.5 °C 30.15in /  1020.9hPa Calm     53% 0.00in /  0mm
22:30 28.0 °F /  -2.2 °C 12.6 °F /  -10.8 °C 30.15in /  1020.9hPa Calm     52% 0.00in /  0mm
22:39 28.5 °F /  -1.9 °C 12.7 °F /  -10.7 °C 30.13in /  1020.2hPa Calm     51% 0.00in /  0mm
22:44 28.9 °F /  -1.7 °C 11.2 °F /  -11.6 °C 30.14in /  1020.5hPa Calm   2.0mph /  3.2km/h 47% 0.00in /  0mm
22:49 29.1 °F /  -1.6 °C 9.4 °F /  -12.6 °C 30.14in /  1020.5hPa Calm   2.0mph /  3.2km/h 43% 0.00in /  0mm
22:54 29.2 °F /  -1.6 °C 10.5 °F /  -11.9 °C 30.13in /  1020.2hPa Calm   2.0mph /  3.2km/h 45% 0.00in /  0mm
22:59 29.4 °F /  -1.4 °C 11.6 °F /  -11.3 °C 30.13in /  1020.2hPa Calm   2.0mph /  3.2km/h 47% 0.00in /  0mm
23:04 29.3 °F /  -1.5 °C 12.5 °F /  -10.8 °C 30.13in /  1020.2hPa Calm     49% 0.00in /  0mm
23:09 29.2 °F /  -1.6 °C 14.6 °F /  -9.7 °C 30.13in /  1020.2hPa Calm     54% 0.00in /  0mm
23:14 29.1 °F /  -1.6 °C 14.5 °F /  -9.7 °C 30.13in /  1020.2hPa Calm     54% 0.00in /  0mm
23:19 29.0 °F /  -1.7 °C 12.7 °F /  -10.7 °C 30.13in /  1020.2hPa Calm     50% 0.00in /  0mm
23:24 28.9 °F /  -1.7 °C 15.2 °F /  -9.3 °C 30.13in /  1020.2hPa Calm     56% 0.00in /  0mm
23:29 28.9 °F /  -1.7 °C 15.2 °F /  -9.3 °C 30.14in /  1020.5hPa Calm     56% 0.00in /  0mm
23:34 28.8 °F /  -1.8 °C 12.0 °F /  -11.1 °C 30.12in /  1019.9hPa Calm   1.0mph /  1.6km/h 49% 0.00in /  0mm
23:40 29.0 °F /  -1.7 °C 8.2 °F /  -13.2 °C 30.11in /  1019.5hPa North 1.0mph /  1.6km/h 3.0mph /  4.8km/h 41% 0.00in /  0mm
23:49 29.7 °F /  -1.3 °C 7.2 °F /  -13.8 °C 30.06in /  1017.8hPa SSW 3.0mph /  4.8km/h 7.0mph /  11.3km/h 38% 0.00in /  0mm
23:54 30.1 °F /  -1.1 °C 5.7 °F /  -14.6 °C 30.06in /  1017.8hPa SW 4.0mph /  6.4km/h 8.0mph /  12.9km/h 35% 0.00in /  0mm
23:59 30.0 °F /  -1.1 °C 5.6 °F /  -14.7 °C 30.05in /  1017.5hPa SSW 4.0mph /  6.4km/h 9.0mph /  14.5km/h 35% 0.00in /  0mm
Westford Weather
Compliments of Weather Underground

 
 
Current Radar Loop:

Copyright © WestfordWeather.net 2007-2014. All rights reserved.